createdAt,value
2022-12-09T00:01:21.046Z,99628.38
2022-12-09T00:03:49.048Z,99625.94
2022-12-09T00:06:25.618Z,99621.00
2022-12-09T00:08:53.699Z,99620.63
2022-12-09T00:11:21.991Z,99627.81
2022-12-09T00:13:54.376Z,99621.16
2022-12-09T00:16:23.092Z,99619.19
2022-12-09T00:18:51.538Z,99626.22
2022-12-09T00:21:32.373Z,99622.53
2022-12-09T00:24:03.953Z,99625.22
2022-12-09T00:26:31.598Z,99634.56
2022-12-09T00:29:00.047Z,99609.16
2022-12-09T00:31:32.587Z,99624.22
2022-12-09T00:34:06.249Z,99628.44
2022-12-09T00:36:33.554Z,99624.22
2022-12-09T00:39:02.165Z,99624.09
2022-12-09T00:41:30.331Z,99629.19
2022-12-09T00:43:58.345Z,99628.38
2022-12-09T00:46:25.507Z,99629.91
2022-12-09T00:48:52.658Z,99631.06
2022-12-09T00:51:22.691Z,99615.63
2022-12-09T00:53:54.911Z,99628.19
2022-12-09T00:56:24.892Z,99620.03
2022-12-09T00:58:52.343Z,99618.88
2022-12-09T01:01:19.338Z,99620.03
2022-12-09T01:03:46.609Z,99618.44
2022-12-09T01:06:20.280Z,99621.84
2022-12-09T01:08:47.764Z,99613.69
2022-12-09T01:11:33.304Z,99606.25
2022-12-09T01:14:02.444Z,99614.56
2022-12-09T01:16:35.039Z,99607.56
2022-12-09T01:19:07.409Z,99619.78
2022-12-09T01:21:36.399Z,99613.59
2022-12-09T01:24:10.966Z,99611.25
2022-12-09T01:26:39.275Z,99611.25
2022-12-09T01:29:06.389Z,99601.47
2022-12-09T01:31:33.688Z,99613.22
2022-12-09T01:34:01.050Z,99604.00
2022-12-09T01:36:29.949Z,99607.84
2022-12-09T01:38:59.529Z,99603.34
2022-12-09T01:41:27.484Z,99603.34
2022-12-09T01:44:18.779Z,99598.22
2022-12-09T01:46:47.569Z,99605.53
2022-12-09T01:49:26.056Z,99600.06
2022-12-09T01:52:10.976Z,99610.72
2022-12-09T01:54:40.341Z,99613.44
2022-12-09T01:57:08.416Z,99613.69
2022-12-09T01:59:36.547Z,99610.84
2022-12-09T02:02:05.076Z,99610.84
2022-12-09T02:04:39.845Z,99605.63
2022-12-09T02:07:10.671Z,99604.63
2022-12-09T02:09:40.112Z,99601.03
2022-12-09T02:12:43.815Z,99596.63
2022-12-09T02:15:21.523Z,99580.44
2022-12-09T02:18:04.643Z,99596.03
2022-12-09T02:20:48.419Z,99577.81
2022-12-09T02:23:51.714Z,99593.78
2022-12-09T02:26:51.877Z,99586.97
2022-12-09T02:29:49.554Z,99582.75
2022-12-09T02:32:16.487Z,99580.88
2022-12-09T02:35:00.894Z,99596.03
2022-12-09T02:37:42.446Z,99598.56
2022-12-09T02:40:25.188Z,99595.03
2022-12-09T02:42:53.445Z,99585.91
2022-12-09T02:45:23.065Z,99598.09
2022-12-09T02:47:53.372Z,99597.31
2022-12-09T02:50:27.829Z,99591.03
2022-12-09T02:52:56.991Z,99593.44
2022-12-09T02:55:24.334Z,99593.38
2022-12-09T02:57:57.726Z,99595.97
2022-12-09T03:00:25.037Z,99598.56
2022-12-09T03:03:05.596Z,99591.56
2022-12-09T03:06:01.013Z,99593.44
2022-12-09T03:09:01.749Z,99594.97
2022-12-09T03:11:32.244Z,99590.91
2022-12-09T03:14:13.172Z,99593.78
2022-12-09T03:16:52.342Z,99589.38
2022-12-09T03:19:29.070Z,99588.56
2022-12-09T03:22:04.152Z,99594.03
2022-12-09T03:24:54.336Z,99589.00
2022-12-09T03:27:29.177Z,99591.00
2022-12-09T03:29:58.641Z,99588.53
2022-12-09T03:32:28.471Z,99584.06
2022-12-09T03:35:05.407Z,99584.13
2022-12-09T03:37:33.694Z,99581.66
2022-12-09T03:40:01.450Z,99580.72
2022-12-09T03:42:38.399Z,99583.34
2022-12-09T03:45:11.649Z,99580.91
2022-12-09T03:47:39.038Z,99577.75
2022-12-09T03:50:08.006Z,99582.97
2022-12-09T03:52:45.915Z,99583.66
2022-12-09T03:55:44.013Z,99584.31
2022-12-09T03:58:13.751Z,99586.03
2022-12-09T04:00:41.053Z,99584.41
2022-12-09T04:03:09.037Z,99588.72
2022-12-09T04:05:36.397Z,99575.47
2022-12-09T04:08:03.537Z,99583.81
2022-12-09T04:10:30.574Z,99589.00
2022-12-09T04:12:57.793Z,99580.59
2022-12-09T04:15:25.191Z,99576.47
2022-12-09T04:17:52.277Z,99582.09
2022-12-09T04:20:19.507Z,99584.00
2022-12-09T04:22:46.461Z,99581.72
2022-12-09T04:25:13.798Z,99585.88
2022-12-09T04:27:41.037Z,99578.59
2022-12-09T04:30:09.388Z,99584.63
2022-12-09T04:32:37.150Z,99589.81
2022-12-09T04:35:04.698Z,99583.44
2022-12-09T04:37:32.727Z,99583.19
2022-12-09T04:39:59.755Z,99581.53
2022-12-09T04:42:29.807Z,99571.41
2022-12-09T04:44:56.795Z,99573.56
2022-12-09T04:47:24.410Z,99578.53
2022-12-09T04:49:51.757Z,99584.00
2022-12-09T04:52:19.355Z,99577.72
2022-12-09T04:54:46.331Z,99580.84
2022-12-09T04:57:13.731Z,99582.44
2022-12-09T04:59:40.778Z,99572.50
2022-12-09T05:02:07.909Z,99576.81
2022-12-09T05:04:35.314Z,99579.59
2022-12-09T05:07:02.603Z,99581.38
2022-12-09T05:09:30.356Z,99576.63
2022-12-09T05:11:58.295Z,99579.06
2022-12-09T05:14:25.848Z,99577.81
2022-12-09T05:16:53.105Z,99574.16
2022-12-09T05:19:20.434Z,99583.69
2022-12-09T05:21:48.106Z,99581.41
2022-12-09T05:24:15.499Z,99569.56
2022-12-09T05:26:42.881Z,99579.38
2022-12-09T05:29:09.987Z,99582.78
2022-12-09T05:31:37.140Z,99573.00
2022-12-09T05:34:04.659Z,99579.09
2022-12-09T05:36:32.351Z,99584.56
2022-12-09T05:38:59.820Z,99588.63
2022-12-09T05:41:27.319Z,99586.91
2022-12-09T05:43:54.820Z,99587.00
2022-12-09T05:46:22.620Z,99583.22
2022-12-09T05:48:49.963Z,99584.66
2022-12-09T05:51:27.346Z,99584.66
2022-12-09T05:53:55.982Z,99586.28
2022-12-09T05:56:25.400Z,99591.66
2022-12-09T05:58:54.158Z,99596.84
2022-12-09T06:01:23.635Z,99595.56
2022-12-09T06:03:52.402Z,99590.47
2022-12-09T06:06:23.015Z,99600.25
2022-12-09T06:08:54.894Z,99598.38
2022-12-09T06:11:22.927Z,99601.97
2022-12-09T06:13:51.441Z,99600.97
2022-12-09T06:16:21.954Z,99604.38
2022-12-09T06:18:50.404Z,99607.25
2022-12-09T06:21:19.984Z,99600.25
2022-12-09T06:23:47.640Z,99598.28
2022-12-09T06:26:21.511Z,99599.34
2022-12-09T06:28:48.835Z,99604.81
2022-12-09T06:31:16.746Z,99596.81
2022-12-09T06:34:00.291Z,99606.63
2022-12-09T06:36:31.187Z,99612.09
2022-12-09T06:39:07.922Z,99606.28
2022-12-09T06:41:37.394Z,99605.47
2022-12-09T06:44:04.781Z,99613.47
2022-12-09T06:46:32.053Z,99616.88
2022-12-09T06:48:59.427Z,99603.06
2022-12-09T06:51:26.966Z,99610.56
2022-12-09T06:53:54.696Z,99613.75
2022-12-09T06:56:23.443Z,99611.97
2022-12-09T06:58:51.326Z,99607.44
2022-12-09T07:01:25.433Z,99610.28
2022-12-09T07:03:56.659Z,99606.38
2022-12-09T07:06:30.122Z,99613.22
2022-12-09T07:09:02.052Z,99612.41
2022-12-09T07:11:30.156Z,99603.84
2022-12-09T07:13:57.573Z,99597.19
2022-12-09T07:16:25.704Z,99606.94
2022-12-09T07:18:53.594Z,99607.13
2022-12-09T07:21:22.776Z,99603.13
2022-12-09T07:23:50.541Z,99593.97
2022-12-09T07:26:18.755Z,99593.31
2022-12-09T07:28:48.143Z,99588.09
2022-12-09T07:31:25.710Z,99587.63
2022-12-09T07:33:56.399Z,99594.94
2022-12-09T07:36:26.632Z,99582.72
2022-12-09T07:39:11.465Z,99589.16
2022-12-09T07:41:38.720Z,99582.00
2022-12-09T07:44:06.250Z,99595.13
2022-12-09T07:46:34.098Z,99590.72
2022-12-09T07:49:04.590Z,99599.28
2022-12-09T07:51:33.398Z,99594.41
2022-12-09T07:54:00.998Z,99595.09
2022-12-09T07:56:29.295Z,99591.66
2022-12-09T07:58:57.414Z,99589.38
2022-12-09T08:01:30.197Z,99593.97
2022-12-09T08:03:58.324Z,99597.06
2022-12-09T08:06:28.640Z,99602.16
2022-12-09T08:09:02.150Z,99604.47
2022-12-09T08:11:31.898Z,99606.09
2022-12-09T08:14:07.267Z,99607.19
2022-12-09T08:16:38.422Z,99603.22
2022-12-09T08:19:06.087Z,99606.13
2022-12-09T08:21:34.416Z,99611.53
2022-12-09T08:24:06.040Z,99606.84
2022-12-09T08:26:35.205Z,99614.53
2022-12-09T08:29:06.661Z,99621.16
2022-12-09T08:31:40.373Z,99620.28
2022-12-09T08:34:08.982Z,99610.78
2022-12-09T08:36:37.148Z,99612.31
2022-12-09T08:39:05.405Z,99611.22
2022-12-09T08:41:36.529Z,99616.13
2022-12-09T08:44:14.680Z,99617.06
2022-12-09T08:46:50.139Z,99612.31
2022-12-09T08:49:22.113Z,99615.47
2022-12-09T08:51:51.709Z,99622.41
2022-12-09T08:54:19.876Z,99619.88
2022-12-09T08:56:55.142Z,99621.03
2022-12-09T08:59:23.783Z,99621.34
2022-12-09T09:01:51.636Z,99621.03
2022-12-09T09:04:21.845Z,99616.13
2022-12-09T09:06:51.629Z,99620.50
2022-12-09T09:09:20.622Z,99612.97
2022-12-09T09:11:48.880Z,99616.63
2022-12-09T09:14:16.522Z,99606.59
2022-12-09T09:16:45.698Z,99607.88
2022-12-09T09:19:20.999Z,99608.44
2022-12-09T09:21:49.145Z,99605.75
2022-12-09T09:24:20.719Z,99608.66
2022-12-09T09:26:51.116Z,99612.78
2022-12-09T09:29:21.292Z,99609.03
2022-12-09T09:31:49.825Z,99612.56
2022-12-09T09:34:19.145Z,99610.25
2022-12-09T09:36:47.007Z,99605.50
2022-12-09T09:39:14.590Z,99606.25
2022-12-09T09:42:06.198Z,99613.13
2022-12-09T09:44:38.052Z,99611.50
2022-12-09T09:48:08.135Z,99611.44
2022-12-09T09:50:57.073Z,99609.84
2022-12-09T09:53:33.000Z,99606.47
2022-12-09T09:56:21.225Z,99609.75
2022-12-09T09:59:28.608Z,99610.03
2022-12-09T10:02:38.746Z,99604.94
2022-12-09T10:05:30.712Z,99603.13
2022-12-09T10:08:27.003Z,99593.78
2022-12-09T10:11:09.133Z,99603.47
2022-12-09T10:14:06.174Z,99605.94
2022-12-09T10:17:12.586Z,99599.84
2022-12-09T10:19:54.579Z,99610.66
2022-12-09T10:22:27.184Z,99616.75
2022-12-09T10:24:59.230Z,99616.00
2022-12-09T10:27:53.971Z,99607.50
2022-12-09T10:30:22.453Z,99608.72
2022-12-09T10:32:50.196Z,99610.72
2022-12-09T10:35:24.733Z,99617.34
2022-12-09T10:37:54.379Z,99610.09
2022-12-09T10:40:36.194Z,99612.25
2022-12-09T10:43:37.560Z,99601.53
2022-12-09T10:46:18.865Z,99610.59
2022-12-09T10:48:46.902Z,99609.03
2022-12-09T10:51:28.961Z,99615.25
2022-12-09T10:54:11.666Z,99608.44
2022-12-09T10:57:28.247Z,99609.81
2022-12-09T11:00:19.843Z,99607.38
2022-12-09T11:02:55.881Z,99611.03
2022-12-09T11:05:32.296Z,99601.16
2022-12-09T11:08:00.739Z,99607.31
2022-12-09T11:10:30.706Z,99606.34
2022-12-09T11:13:05.503Z,99603.50
2022-12-09T11:15:45.073Z,99606.81
2022-12-09T11:18:37.432Z,99604.03
2022-12-09T11:21:33.441Z,99590.00
2022-12-09T11:24:03.639Z,99597.88
2022-12-09T11:26:38.423Z,99587.94
2022-12-09T11:29:19.438Z,99586.44
2022-12-09T11:31:47.400Z,99592.66
2022-12-09T11:34:23.354Z,99595.41
2022-12-09T11:36:54.524Z,99586.22
2022-12-09T11:39:35.354Z,99589.03
2022-12-09T11:42:18.893Z,99594.47
2022-12-09T11:45:25.708Z,99591.28
2022-12-09T11:50:51.647Z,99577.72
2022-12-09T11:53:30.928Z,99582.97
2022-12-09T11:56:04.417Z,99569.22
2022-12-09T11:58:43.694Z,99577.34
2022-12-09T12:01:35.412Z,99571.09
2022-12-09T12:04:10.785Z,99575.09
2022-12-09T12:06:56.779Z,99569.41
2022-12-09T12:09:53.807Z,99571.28
2022-12-09T12:12:55.482Z,99570.38
2022-12-09T12:15:35.673Z,99560.88
2022-12-09T12:18:08.515Z,99565.31
2022-12-09T12:21:03.463Z,99566.53
2022-12-09T12:23:44.369Z,99572.09
2022-12-09T12:26:25.139Z,99569.34
2022-12-09T12:28:58.241Z,99567.69
2022-12-09T12:31:59.803Z,99564.88
2022-12-09T12:35:10.770Z,99575.81
2022-12-09T12:38:23.181Z,99579.75
2022-12-09T12:41:16.008Z,99574.22
2022-12-09T12:44:43.904Z,99576.25
2022-12-09T12:47:44.651Z,99565.94
2022-12-09T12:50:48.027Z,99566.47
2022-12-09T12:53:26.604Z,99578.41
2022-12-09T12:56:09.626Z,99558.28
2022-12-09T12:59:14.701Z,99567.03
2022-12-09T13:02:02.304Z,99557.63
2022-12-09T13:04:57.579Z,99564.28
2022-12-09T13:07:51.117Z,99566.47
2022-12-09T13:10:36.502Z,99570.16
2022-12-09T13:13:13.106Z,99564.63
2022-12-09T13:15:46.785Z,99573.81
2022-12-09T13:18:27.117Z,99573.34
2022-12-09T13:21:01.195Z,99566.53
2022-12-09T13:24:13.601Z,99578.78
2022-12-09T13:27:01.312Z,99578.06
2022-12-09T13:30:01.891Z,99577.06
2022-12-09T13:33:08.769Z,99582.94
2022-12-09T13:36:00.687Z,99582.34
2022-12-09T13:38:42.355Z,99581.22
2022-12-09T13:41:58.972Z,99571.66
2022-12-09T13:44:35.751Z,99575.69
2022-12-09T13:47:36.308Z,99587.47
2022-12-09T13:50:21.633Z,99586.31
2022-12-09T13:52:56.582Z,99592.81
2022-12-09T13:55:32.859Z,99598.72
2022-12-09T13:59:10.547Z,99597.69
2022-12-09T14:02:02.023Z,99599.28
2022-12-09T14:04:37.359Z,99592.53
2022-12-09T14:07:47.219Z,99602.03
2022-12-09T14:11:19.314Z,99603.41
2022-12-09T14:13:46.349Z,99602.44
2022-12-09T14:16:28.761Z,99610.25
2022-12-09T14:18:57.116Z,99610.53
2022-12-09T14:21:31.242Z,99614.78
2022-12-09T14:24:11.421Z,99620.72
2022-12-09T14:27:08.765Z,99604.56
2022-12-09T14:30:23.279Z,99606.94
2022-12-09T14:32:50.122Z,99599.19
2022-12-09T14:35:46.398Z,99597.59
2022-12-09T14:39:07.733Z,99589.84
2022-12-09T14:42:04.138Z,99597.94
2022-12-09T14:44:55.195Z,99588.00
2022-12-09T14:47:32.694Z,99584.19
2022-12-09T14:50:15.245Z,99585.22
2022-12-09T14:52:54.114Z,99578.03
2022-12-09T14:55:24.937Z,99575.97
2022-12-09T14:57:54.632Z,99581.59
2022-12-09T15:00:41.771Z,99579.19
2022-12-09T15:03:35.530Z,99575.94
2022-12-09T15:06:17.380Z,99582.50
2022-12-09T15:08:45.112Z,99576.09
2022-12-09T15:11:23.099Z,99578.50
2022-12-09T15:13:53.947Z,99572.00
2022-12-09T15:16:25.364Z,99566.56
2022-12-09T15:18:54.267Z,99570.50
2022-12-09T15:21:30.993Z,99571.66
2022-12-09T15:24:00.512Z,99568.88
2022-12-09T15:26:32.349Z,99570.91
2022-12-09T15:29:01.252Z,99579.94
2022-12-09T15:31:32.086Z,99580.53
2022-12-09T15:34:08.427Z,99578.50
2022-12-09T15:36:43.522Z,99579.91
2022-12-09T15:39:23.752Z,99579.56
2022-12-09T15:42:08.010Z,99554.84
2022-12-09T15:45:01.187Z,99571.72
2022-12-09T15:47:50.733Z,99577.75
2022-12-09T15:50:36.824Z,99568.56
2022-12-09T15:53:26.837Z,99558.50
2022-12-09T15:56:07.436Z,99564.34
2022-12-09T15:58:42.722Z,99563.88
2022-12-09T16:01:10.282Z,99565.72
2022-12-09T16:03:38.825Z,99561.53
2022-12-09T16:06:09.227Z,99563.56
2022-12-09T16:08:44.464Z,99544.63
2022-12-09T16:11:12.316Z,99554.69
2022-12-09T16:13:59.758Z,99541.50
2022-12-09T16:16:40.259Z,99548.47
2022-12-09T16:19:38.787Z,99543.53
2022-12-09T16:22:19.086Z,99531.34
2022-12-09T16:25:16.252Z,99531.75
2022-12-09T16:27:51.532Z,99539.34
2022-12-09T16:30:20.939Z,99529.94
2022-12-09T16:32:56.194Z,99525.09
2022-12-09T16:35:42.836Z,99533.19
2022-12-09T16:38:09.701Z,99535.00
2022-12-09T16:40:45.528Z,99535.06
2022-12-09T16:43:21.206Z,99536.16
2022-12-09T16:45:53.639Z,99539.38
2022-12-09T16:48:23.584Z,99543.03
2022-12-09T16:51:14.308Z,99540.91
2022-12-09T16:53:53.711Z,99536.88
2022-12-09T16:56:27.794Z,99538.84
2022-12-09T16:58:55.574Z,99537.28
2022-12-09T17:01:35.233Z,99525.50
2022-12-09T17:04:26.870Z,99527.78
2022-12-09T17:06:54.423Z,99527.72
2022-12-09T17:09:21.477Z,99527.34
2022-12-09T17:11:49.363Z,99516.63
2022-12-09T17:14:17.359Z,99527.03
2022-12-09T17:16:44.924Z,99535.16
2022-12-09T17:19:12.097Z,99537.84
2022-12-09T17:21:39.045Z,99538.66
2022-12-09T17:24:06.584Z,99537.41
2022-12-09T17:26:33.515Z,99537.81
2022-12-09T17:29:02.079Z,99536.44
2022-12-09T17:31:29.804Z,99540.19
2022-12-09T17:33:57.358Z,99527.56
2022-12-09T17:36:24.311Z,99526.81
2022-12-09T17:38:51.441Z,99535.88
2022-12-09T17:41:23.382Z,99541.47
2022-12-09T17:43:50.547Z,99536.16
2022-12-09T17:46:17.932Z,99542.59
2022-12-09T17:48:44.943Z,99542.84
2022-12-09T17:51:16.481Z,99544.34
2022-12-09T17:53:44.354Z,99548.78
2022-12-09T17:56:15.712Z,99544.66
2022-12-09T17:58:43.644Z,99540.81
2022-12-09T18:01:20.932Z,99539.34
2022-12-09T18:03:57.266Z,99532.44
2022-12-09T18:06:27.876Z,99539.69
2022-12-09T18:08:54.886Z,99542.50
2022-12-09T18:11:22.559Z,99545.72
2022-12-09T18:13:50.786Z,99539.09
2022-12-09T18:16:18.756Z,99532.94
2022-12-09T18:18:46.229Z,99539.19
2022-12-09T18:21:16.038Z,99536.84
2022-12-09T18:23:43.965Z,99538.53
2022-12-09T18:26:14.260Z,99544.16
2022-12-09T18:28:41.513Z,99543.00
2022-12-09T18:31:12.086Z,99531.88
2022-12-09T18:33:39.738Z,99531.28
2022-12-09T18:36:13.087Z,99530.63
2022-12-09T18:38:41.096Z,99531.25
2022-12-09T18:41:13.727Z,99533.22
2022-12-09T18:43:44.145Z,99536.69
2022-12-09T18:46:25.720Z,99525.66
2022-12-09T18:49:08.592Z,99536.34
2022-12-09T18:51:36.597Z,99519.34
2022-12-09T18:54:04.828Z,99518.75
2022-12-09T18:56:33.027Z,99515.25
2022-12-09T18:59:08.689Z,99526.91
2022-12-09T19:01:40.954Z,99518.53
2022-12-09T19:04:22.864Z,99521.09
2022-12-09T19:06:53.076Z,99517.72
2022-12-09T19:09:24.615Z,99523.56
2022-12-09T19:11:53.348Z,99523.47
2022-12-09T19:14:22.927Z,99506.97
2022-12-09T19:16:51.987Z,99513.31
2022-12-09T19:19:22.773Z,99523.22
2022-12-09T19:21:50.679Z,99522.41
2022-12-09T19:24:24.641Z,99517.84
2022-12-09T19:26:53.945Z,99513.19
2022-12-09T19:29:22.149Z,99517.25
2022-12-09T19:31:51.674Z,99520.56
2022-12-09T19:34:27.903Z,99521.97
2022-12-09T19:36:58.380Z,99520.31
2022-12-09T19:39:34.017Z,99518.81
2022-12-09T19:42:01.823Z,99524.75
2022-12-09T19:44:59.640Z,99525.59
2022-12-09T19:47:15.769Z,99508.56
2022-12-09T19:49:44.457Z,99525.59
2022-12-09T19:52:12.815Z,99518.31
2022-12-09T19:54:40.144Z,99513.69
2022-12-09T19:57:07.140Z,99511.78
2022-12-09T19:59:35.545Z,99516.63
2022-12-09T20:02:02.646Z,99512.69
2022-12-09T20:07:19.949Z,99516.38
2022-12-09T20:09:47.545Z,99508.94
2022-12-09T20:12:14.635Z,99512.94
2022-12-09T20:14:43.195Z,99504.03
2022-12-09T20:17:10.869Z,99510.28
2022-12-09T20:19:37.924Z,99513.63
2022-12-09T20:22:07.114Z,99511.56
2022-12-09T20:24:34.239Z,99508.72
2022-12-09T20:27:01.367Z,99505.97
2022-12-09T20:29:32.460Z,99508.44
2022-12-09T20:32:02.742Z,99500.50
2022-12-09T20:34:29.721Z,99500.59
2022-12-09T20:36:56.923Z,99497.09
2022-12-09T20:39:24.010Z,99505.25
2022-12-09T20:41:51.061Z,99501.47
2022-12-09T20:44:20.060Z,99489.09
2022-12-09T20:46:50.499Z,99494.47
2022-12-09T20:49:21.977Z,99502.88
2022-12-09T20:51:49.263Z,99485.78
2022-12-09T20:54:16.366Z,99499.94
2022-12-09T20:56:43.550Z,99492.13
2022-12-09T20:59:13.685Z,99485.31
2022-12-09T21:01:41.665Z,99489.69
2022-12-09T21:04:08.851Z,99483.59
2022-12-09T21:06:38.776Z,99482.75
2022-12-09T21:09:14.825Z,99472.75
2022-12-09T21:11:42.048Z,99476.66
2022-12-09T21:14:10.372Z,99471.75
2022-12-09T21:16:42.966Z,99482.88
2022-12-09T21:19:14.062Z,99476.81
2022-12-09T21:21:46.715Z,99473.41
2022-12-09T21:24:16.198Z,99476.59
2022-12-09T21:26:43.575Z,99464.03
2022-12-09T21:29:12.656Z,99471.28
2022-12-09T21:31:41.756Z,99464.03
2022-12-09T21:34:10.878Z,99462.00
2022-12-09T21:36:41.478Z,99466.16
2022-12-09T21:39:10.601Z,99457.44
2022-12-09T21:41:37.944Z,99468.34
2022-12-09T21:44:06.747Z,99471.09
2022-12-09T21:46:37.681Z,99468.13
2022-12-09T21:49:06.905Z,99455.84
2022-12-09T21:51:35.343Z,99470.72
2022-12-09T21:54:03.264Z,99467.81
2022-12-09T21:56:33.481Z,99464.03
2022-12-09T21:59:01.643Z,99463.41
2022-12-09T22:01:36.059Z,99467.47
2022-12-09T22:04:07.525Z,99464.97
2022-12-09T22:06:34.885Z,99467.06
2022-12-09T22:09:02.870Z,99454.19
2022-12-09T22:11:35.800Z,99463.56
2022-12-09T22:14:03.635Z,99451.84
2022-12-09T22:16:38.641Z,99452.44
2022-12-09T22:19:08.431Z,99454.19
2022-12-09T22:21:36.850Z,99446.81
2022-12-09T22:24:06.958Z,99438.31
2022-12-09T22:26:34.401Z,99446.25
2022-12-09T22:29:04.584Z,99434.84
2022-12-09T22:31:36.794Z,99437.38
2022-12-09T22:34:10.050Z,99438.56
2022-12-09T22:36:37.304Z,99440.94
2022-12-09T22:39:06.950Z,99435.88
2022-12-09T22:41:35.033Z,99428.25
2022-12-09T22:44:02.541Z,99437.03
2022-12-09T22:46:32.847Z,99428.63
2022-12-09T22:49:06.503Z,99427.00
2022-12-09T22:51:36.551Z,99424.47
2022-12-09T22:54:08.231Z,99412.06
2022-12-09T22:56:40.966Z,99411.72
2022-12-09T22:59:08.922Z,99405.22
2022-12-09T23:01:37.503Z,99416.44
2022-12-09T23:04:06.901Z,99414.03
2022-12-09T23:06:37.277Z,99404.72
2022-12-09T23:09:07.069Z,99415.38
2022-12-09T23:11:34.553Z,99407.91
2022-12-09T23:14:01.761Z,99402.38
2022-12-09T23:16:29.276Z,99398.47
2022-12-09T23:18:58.614Z,99391.47
2022-12-09T23:21:35.496Z,99394.72
2022-12-09T23:24:07.138Z,99395.72
2022-12-09T23:26:37.558Z,99393.50
2022-12-09T23:29:08.531Z,99383.16
2022-12-09T23:31:37.647Z,99397.00
2022-12-09T23:34:06.578Z,99393.94
2022-12-09T23:36:40.344Z,99395.03
2022-12-09T23:39:14.361Z,99388.97
2022-12-09T23:41:43.250Z,99393.34
2022-12-09T23:44:13.797Z,99396.66
2022-12-09T23:46:41.158Z,99391.47
2022-12-09T23:49:08.763Z,99386.56
2022-12-09T23:51:39.171Z,99397.88
2022-12-09T23:54:08.805Z,99389.81
2022-12-09T23:56:40.389Z,99375.84
2022-12-09T23:59:11.154Z,99379.25
